Bellevue, NE (68005)

4:09 PM CDT on September 04, 2015 (GMT -0500)
StormTracker--Bellevue, NE | | Change Station
CLOSE
Current Station
Personal Weather Station
Location: Bellevue, NE
Elevation: 1171 ft
Nearby Weather Stations

Elev 1171 ft 41.16 °N, 95.92 °W | Updated 3 minutes ago

Partly Cloudy
Partly Cloudy
87.5 °F
Feels Like 96 °F
N
2.0
Wind Variable Wind from ESE
Gusts 2.0 mph

Today
High -- | Low -- °F
--% Chance of Precip.
Yesterday
High -- | Low -- °F
Precip. -- in
6:52 AM 7:51 PM
Waning Gibbous, 56% visible
Pressure 29.85 in
Visibility 10.0 miles
Clouds Few 17000 ft
Heat Index 96 °F
Dew Point 74 °F
Humidity 64%
Rainfall 0.00 in
Snow Depth Not available.
UV 5 out of 12
Pollen 11.30 out of 12
Air Quality Not available.
Flu Activity Not available.
METAR KOFF 042058Z AUTO 13012KT 10SM FEW170 31/22 A2986 RMK AO2 SLP106 T03100221 57012 $
Pressure 29.85 in
Visibility 10.0 miles
Clouds Few 17000 ft
Heat Index 96 °F
Dew Point 74 °F
Humidity 64%
Rainfall 0.00 in
Snow Depth Not available.
UV 5 out of 12
Pollen 11.30 out of 12
Air Quality Not available.
Flu Activity Not available.
METAR KOFF 042058Z AUTO 13012KT 10SM FEW170 31/22 A2986 RMK AO2 SLP106 T03100221 57012 $

10-Day Weather Forecast

×

Almanac

Astronomy

Sep. 04, 2015 Rise Set
Actual Time
Civil Twilight
Nautical Twilight
Astronomical Twilight
Moon
Length of Visible Light
Length of Day
Tomorrow will be .
, % of the Moon is Illuminated

Today's Extremes

State Highs State Lows

Community

WunderPhotos

Upload Photos

1,852,290 photos uploaded!

WunderBlogs® & News

Nearby

Air Quality

  Air Quality AQ Index Pollutant
Not available.

Snow Depth

Station Depth Elevation

Earthquake Activity

City Distance Mag. Time & Date
Minimum magnitude displayed is 2.5.

Coastal Water Temperatures

Place Temperature

Stations

Nearby Weather Stations

Station Location Temp. Windchill Dew Point Humidity Wind Precip. Elev Updated Type